sensor_id;sensor_type;location;lat;lon;timestamp;pressure;altitude;pressure_sealevel;temperature;humidity
62978;BME280;49073;42.352;23.808;2022-11-09T00:01:41;95322.66;;;9.77;92.95
62978;BME280;49073;42.352;23.808;2022-11-09T00:04:42;95322.00;;;9.80;92.77
62978;BME280;49073;42.352;23.808;2022-11-09T00:07:42;95317.34;;;9.64;93.20
62978;BME280;49073;42.352;23.808;2022-11-09T00:10:43;95316.31;;;9.69;93.32
62978;BME280;49073;42.352;23.808;2022-11-09T00:13:44;95320.75;;;9.65;93.34
62978;BME280;49073;42.352;23.808;2022-11-09T00:16:45;95322.66;;;9.64;93.12
62978;BME280;49073;42.352;23.808;2022-11-09T00:19:45;95321.63;;;9.56;93.30
62978;BME280;49073;42.352;23.808;2022-11-09T00:22:47;95324.97;;;9.53;93.38
62978;BME280;49073;42.352;23.808;2022-11-09T00:25:48;95323.09;;;9.54;93.60
62978;BME280;49073;42.352;23.808;2022-11-09T00:28:49;95315.44;;;9.65;93.39
62978;BME280;49073;42.352;23.808;2022-11-09T00:31:49;95329.19;;;9.67;93.13
62978;BME280;49073;42.352;23.808;2022-11-09T00:34:50;95328.22;;;9.71;92.90
62978;BME280;49073;42.352;23.808;2022-11-09T00:37:51;95321.56;;;9.78;92.50
62978;BME280;49073;42.352;23.808;2022-11-09T00:40:51;95319.13;;;9.72;92.44
62978;BME280;49073;42.352;23.808;2022-11-09T00:43:52;95326.44;;;9.75;92.55
62978;BME280;49073;42.352;23.808;2022-11-09T00:46:53;95329.53;;;9.78;92.25
62978;BME280;49073;42.352;23.808;2022-11-09T00:49:53;95317.47;;;9.80;92.02
62978;BME280;49073;42.352;23.808;2022-11-09T00:52:54;95317.47;;;9.80;91.68
62978;BME280;49073;42.352;23.808;2022-11-09T00:55:59;95320.91;;;9.93;91.29
62978;BME280;49073;42.352;23.808;2022-11-09T00:59:00;95311.03;;;9.94;90.75
62978;BME280;49073;42.352;23.808;2022-11-09T01:02:01;95317.47;;;9.80;91.74
62978;BME280;49073;42.352;23.808;2022-11-09T01:05:02;95315.78;;;9.75;92.50
62978;BME280;49073;42.352;23.808;2022-11-09T01:08:03;95318.69;;;9.70;93.00
62978;BME280;49073;42.352;23.808;2022-11-09T01:11:05;95317.34;;;9.77;93.18
62978;BME280;49073;42.352;23.808;2022-11-09T01:14:06;95316.38;;;9.81;92.83
62978;BME280;49073;42.352;23.808;2022-11-09T01:17:07;95324.13;;;9.74;92.94
62978;BME280;49073;42.352;23.808;2022-11-09T01:20:08;95321.88;;;9.64;93.79
62978;BME280;49073;42.352;23.808;2022-11-09T01:23:10;95311.78;;;9.69;94.15
62978;BME280;49073;42.352;23.808;2022-11-09T01:26:13;95314.13;;;9.71;93.98
62978;BME280;49073;42.352;23.808;2022-11-09T01:29:14;95316.47;;;9.72;93.69
62978;BME280;49073;42.352;23.808;2022-11-09T01:32:14;95323.22;;;9.70;93.64
62978;BME280;49073;42.352;23.808;2022-11-09T01:35:15;95318.13;;;9.77;93.34
62978;BME280;49073;42.352;23.808;2022-11-09T01:38:15;95311.50;;;9.83;92.91
62978;BME280;49073;42.352;23.808;2022-11-09T01:41:22;95310.25;;;9.81;92.46
62978;BME280;49073;42.352;23.808;2022-11-09T01:44:26;95304.59;;;9.82;91.95
62978;BME280;49073;42.352;23.808;2022-11-09T01:47:26;95301.59;;;9.84;91.91
62978;BME280;49073;42.352;23.808;2022-11-09T01:50:35;95303.16;;;9.85;91.93
62978;BME280;49073;42.352;23.808;2022-11-09T01:53:40;95296.72;;;9.86;91.68
62978;BME280;49073;42.352;23.808;2022-11-09T01:56:44;95297.16;;;9.88;91.74
62978;BME280;49073;42.352;23.808;2022-11-09T01:59:50;95311.59;;;9.87;91.65
62978;BME280;49073;42.352;23.808;2022-11-09T02:02:56;95307.03;;;9.87;91.67
62978;BME280;49073;42.352;23.808;2022-11-09T02:06:00;95317.03;;;9.90;92.02
62978;BME280;49073;42.352;23.808;2022-11-09T02:09:09;95317.56;;;9.96;92.04
62978;BME280;49073;42.352;23.808;2022-11-09T02:12:12;95307.94;;;9.92;92.05
62978;BME280;49073;42.352;23.808;2022-11-09T02:15:14;95308.38;;;9.94;92.20
62978;BME280;49073;42.352;23.808;2022-11-09T02:18:15;95310.25;;;9.93;92.10
62978;BME280;49073;42.352;23.808;2022-11-09T02:21:16;95311.59;;;9.87;92.82
62978;BME280;49073;42.352;23.808;2022-11-09T02:24:17;95309.72;;;9.75;92.79
62978;BME280;49073;42.352;23.808;2022-11-09T02:27:19;95313.13;;;9.75;92.92
62978;BME280;49073;42.352;23.808;2022-11-09T02:30:20;95313.78;;;9.72;93.30
62978;BME280;49073;42.352;23.808;2022-11-09T02:33:21;95317.25;;;9.73;93.13
62978;BME280;49073;42.352;23.808;2022-11-09T02:36:22;95318.00;;;9.73;93.04
62978;BME280;49073;42.352;23.808;2022-11-09T02:39:24;95317.66;;;9.63;92.83
62978;BME280;49073;42.352;23.808;2022-11-09T02:42:26;95313.34;;;9.70;93.09
62978;BME280;49073;42.352;23.808;2022-11-09T02:45:26;95309.59;;;9.71;93.14
62978;BME280;49073;42.352;23.808;2022-11-09T02:48:27;95320.22;;;9.71;92.96
62978;BME280;49073;42.352;23.808;2022-11-09T02:51:28;95317.56;;;9.71;92.73
62978;BME280;49073;42.352;23.808;2022-11-09T02:54:28;95324.56;;;9.76;92.21
62978;BME280;49073;42.352;23.808;2022-11-09T02:57:29;95319.47;;;9.83;92.02
62978;BME280;49073;42.352;23.808;2022-11-09T03:00:29;95323.25;;;9.82;92.10
62978;BME280;49073;42.352;23.808;2022-11-09T03:03:30;95321.91;;;9.88;92.00
62978;BME280;49073;42.352;23.808;2022-11-09T03:06:30;95316.81;;;10.08;91.40
62978;BME280;49073;42.352;23.808;2022-11-09T03:09:34;95316.91;;;10.12;90.28
62978;BME280;49073;42.352;23.808;2022-11-09T03:12:35;95319.69;;;9.90;90.99
62978;BME280;49073;42.352;23.808;2022-11-09T03:15:35;95323.78;;;9.88;91.64
62978;BME280;49073;42.352;23.808;2022-11-09T03:18:37;95326.34;;;9.84;92.09
62978;BME280;49073;42.352;23.808;2022-11-09T03:21:38;95328.22;;;9.84;92.28
62978;BME280;49073;42.352;23.808;2022-11-09T03:24:38;95327.09;;;9.85;92.66
62978;BME280;49073;42.352;23.808;2022-11-09T03:27:39;95327.91;;;9.85;92.56
62978;BME280;49073;42.352;23.808;2022-11-09T03:30:39;95325.47;;;9.80;92.56
62978;BME280;49073;42.352;23.808;2022-11-09T03:33:40;95327.47;;;9.83;92.70
62978;BME280;49073;42.352;23.808;2022-11-09T03:36:40;95323.03;;;9.87;92.58
62978;BME280;49073;42.352;23.808;2022-11-09T03:39:41;95333.31;;;9.77;92.75
62978;BME280;49073;42.352;23.808;2022-11-09T03:42:45;95330.22;;;9.74;92.84
62978;BME280;49073;42.352;23.808;2022-11-09T03:45:46;95328.44;;;9.79;92.85
62978;BME280;49073;42.352;23.808;2022-11-09T03:48:47;95323.22;;;9.70;93.22
62978;BME280;49073;42.352;23.808;2022-11-09T03:51:47;95327.97;;;9.64;93.21
62978;BME280;49073;42.352;23.808;2022-11-09T03:54:48;95333.94;;;9.49;93.59
62978;BME280;49073;42.352;23.808;2022-11-09T03:57:49;95327.53;;;9.50;93.86
62978;BME280;49073;42.352;23.808;2022-11-09T04:00:49;95330.56;;;9.39;94.02
62978;BME280;49073;42.352;23.808;2022-11-09T04:03:50;95327.59;;;9.41;94.48
62978;BME280;49073;42.352;23.808;2022-11-09T04:06:50;95328.03;;;9.43;93.79
62978;BME280;49073;42.352;23.808;2022-11-09T04:09:51;95328.72;;;9.52;93.17
62978;BME280;49073;42.352;23.808;2022-11-09T04:12:52;95336.84;;;9.56;92.59
62978;BME280;49073;42.352;23.808;2022-11-09T04:15:53;95329.63;;;9.56;92.54
62978;BME280;49073;42.352;23.808;2022-11-09T04:18:53;95334.06;;;9.52;92.38
62978;BME280;49073;42.352;23.808;2022-11-09T04:21:54;95337.81;;;9.51;92.08
62978;BME280;49073;42.352;23.808;2022-11-09T04:24:54;95327.59;;;9.41;91.84
62978;BME280;49073;42.352;23.808;2022-11-09T04:27:56;95329.69;;;9.35;91.59
62978;BME280;49073;42.352;23.808;2022-11-09T04:31:00;95328.91;;;9.35;90.97
62978;BME280;49073;42.352;23.808;2022-11-09T04:34:01;95330.41;;;9.44;88.34
62978;BME280;49073;42.352;23.808;2022-11-09T04:37:01;95328.09;;;9.22;88.25
62978;BME280;49073;42.352;23.808;2022-11-09T04:40:02;95327.03;;;9.01;88.82
62978;BME280;49073;42.352;23.808;2022-11-09T04:43:04;95328.81;;;9.10;86.82
62978;BME280;49073;42.352;23.808;2022-11-09T04:46:06;95324.50;;;9.05;85.06
62978;BME280;49073;42.352;23.808;2022-11-09T04:49:07;95319.16;;;8.93;84.65
62978;BME280;49073;42.352;23.808;2022-11-09T04:52:07;95322.50;;;8.81;84.39
62978;BME280;49073;42.352;23.808;2022-11-09T04:55:08;95330.53;;;8.72;84.54
62978;BME280;49073;42.352;23.808;2022-11-09T04:58:09;95322.50;;;8.59;85.23
62978;BME280;49073;42.352;23.808;2022-11-09T05:01:12;95325.72;;;8.44;85.93
62978;BME280;49073;42.352;23.808;2022-11-09T05:04:13;95335.38;;;8.27;85.84
62978;BME280;49073;42.352;23.808;2022-11-09T05:07:13;95335.03;;;8.29;85.08
62978;BME280;49073;42.352;23.808;2022-11-09T05:10:14;95335.66;;;8.26;84.84
62978;BME280;49073;42.352;23.808;2022-11-09T05:13:15;95329.00;;;8.20;85.61
62978;BME280;49073;42.352;23.808;2022-11-09T05:16:16;95332.78;;;8.10;85.35
62978;BME280;49073;42.352;23.808;2022-11-09T05:19:17;95339.66;;;8.11;85.82
62978;BME280;49073;42.352;23.808;2022-11-09T05:22:17;95342.19;;;8.07;86.63
62978;BME280;49073;42.352;23.808;2022-11-09T05:25:37;95343.16;;;7.94;87.57
62978;BME280;49073;42.352;23.808;2022-11-09T05:28:38;95339.59;;;7.90;87.60
62978;BME280;49073;42.352;23.808;2022-11-09T05:31:38;95350.50;;;7.97;88.11
62978;BME280;49073;42.352;23.808;2022-11-09T05:34:39;95354.03;;;8.10;87.46
62978;BME280;49073;42.352;23.808;2022-11-09T05:37:40;95353.09;;;8.06;87.48
62978;BME280;49073;42.352;23.808;2022-11-09T05:40:40;95354.72;;;7.98;88.47
62978;BME280;49073;42.352;23.808;2022-11-09T05:43:41;95350.59;;;8.09;89.18
62978;BME280;49073;42.352;23.808;2022-11-09T05:46:44;95357.13;;;8.12;89.42
62978;BME280;49073;42.352;23.808;2022-11-09T05:49:45;95367.38;;;8.22;89.88
62978;BME280;49073;42.352;23.808;2022-11-09T05:52:45;95369.53;;;8.29;90.18
62978;BME280;49073;42.352;23.808;2022-11-09T05:55:46;95366.16;;;8.50;90.19
62978;BME280;49073;42.352;23.808;2022-11-09T05:58:46;95370.66;;;8.58;90.33
62978;BME280;49073;42.352;23.808;2022-11-09T06:01:47;95361.47;;;8.55;91.22
62978;BME280;49073;42.352;23.808;2022-11-09T06:04:47;95370.94;;;8.65;92.39
62978;BME280;49073;42.352;23.808;2022-11-09T06:07:48;95378.78;;;8.83;92.35
62978;BME280;49073;42.352;23.808;2022-11-09T06:10:48;95376.72;;;8.88;92.75
62978;BME280;49073;42.352;23.808;2022-11-09T06:13:49;95380.38;;;8.96;92.96
62978;BME280;49073;42.352;23.808;2022-11-09T06:16:49;95382.03;;;8.88;93.24
62978;BME280;49073;42.352;23.808;2022-11-09T06:19:50;95386.50;;;8.97;93.02
62978;BME280;49073;42.352;23.808;2022-11-09T06:22:58;95383.19;;;9.00;93.15
62978;BME280;49073;42.352;23.808;2022-11-09T06:26:08;95379.63;;;8.96;94.17
62978;BME280;49073;42.352;23.808;2022-11-09T06:29:09;95382.41;;;8.99;94.90
62978;BME280;49073;42.352;23.808;2022-11-09T06:32:10;95388.50;;;9.00;95.82
62978;BME280;49073;42.352;23.808;2022-11-09T06:35:11;95385.03;;;9.21;95.89
62978;BME280;49073;42.352;23.808;2022-11-09T06:38:11;95389.59;;;9.20;94.91
62978;BME280;49073;42.352;23.808;2022-11-09T06:41:12;95386.16;;;9.20;94.99
62978;BME280;49073;42.352;23.808;2022-11-09T06:44:14;95389.06;;;9.27;94.93
62978;BME280;49073;42.352;23.808;2022-11-09T06:47:15;95387.94;;;9.28;94.90
62978;BME280;49073;42.352;23.808;2022-11-09T06:50:16;95397.03;;;9.27;95.42
62978;BME280;49073;42.352;23.808;2022-11-09T06:53:17;95390.13;;;9.47;94.93
62978;BME280;49073;42.352;23.808;2022-11-09T06:56:17;95392.94;;;9.63;94.33
62978;BME280;49073;42.352;23.808;2022-11-09T06:59:18;95395.84;;;9.70;93.46
62978;BME280;49073;42.352;23.808;2022-11-09T07:02:19;95395.63;;;9.75;92.78
62978;BME280;49073;42.352;23.808;2022-11-09T07:05:20;95395.44;;;9.93;91.94
62978;BME280;49073;42.352;23.808;2022-11-09T07:08:20;95393.66;;;9.97;91.47
62978;BME280;49073;42.352;23.808;2022-11-09T07:11:21;95388.81;;;10.12;90.57
62978;BME280;49073;42.352;23.808;2022-11-09T07:14:22;95386.91;;;10.25;90.39
62978;BME280;49073;42.352;23.808;2022-11-09T07:17:22;95385.59;;;10.18;89.55
62978;BME280;49073;42.352;23.808;2022-11-09T07:20:23;95372.38;;;10.34;89.16
62978;BME280;49073;42.352;23.808;2022-11-09T07:23:24;95377.19;;;10.41;89.29
62978;BME280;49073;42.352;23.808;2022-11-09T07:26:25;95380.53;;;10.51;88.70
62978;BME280;49073;42.352;23.808;2022-11-09T07:29:26;95379.75;;;10.62;88.73
62978;BME280;49073;42.352;23.808;2022-11-09T07:32:27;95382.16;;;10.55;87.79
62978;BME280;49073;42.352;23.808;2022-11-09T07:35:28;95381.50;;;10.71;87.21
62978;BME280;49073;42.352;23.808;2022-11-09T07:38:30;95375.03;;;10.84;86.59
62978;BME280;49073;42.352;23.808;2022-11-09T07:41:31;95376.44;;;10.94;86.35
62978;BME280;49073;42.352;23.808;2022-11-09T07:44:31;95376.59;;;11.14;85.70
62978;BME280;49073;42.352;23.808;2022-11-09T07:47:32;95373.13;;;11.26;85.38
62978;BME280;49073;42.352;23.808;2022-11-09T07:50:33;95379.09;;;11.35;84.34
62978;BME280;49073;42.352;23.808;2022-11-09T07:53:33;95377.03;;;11.44;83.49
62978;BME280;49073;42.352;23.808;2022-11-09T07:56:34;95370.50;;;11.58;82.48
62978;BME280;49073;42.352;23.808;2022-11-09T07:59:35;95372.69;;;11.68;81.77
62978;BME280;49073;42.352;23.808;2022-11-09T08:02:36;95368.63;;;11.74;80.94
62978;BME280;49073;42.352;23.808;2022-11-09T08:05:36;95375.81;;;11.86;80.49
62978;BME280;49073;42.352;23.808;2022-11-09T08:08:37;95378.09;;;12.00;79.65
62978;BME280;49073;42.352;23.808;2022-11-09T08:11:37;95371.69;;;12.05;79.32
62978;BME280;49073;42.352;23.808;2022-11-09T08:14:38;95373.66;;;12.24;79.34
62978;BME280;49073;42.352;23.808;2022-11-09T08:17:38;95375.38;;;12.32;78.28
62978;BME280;49073;42.352;23.808;2022-11-09T08:20:39;95363.84;;;12.28;77.53
62978;BME280;49073;42.352;23.808;2022-11-09T08:23:40;95365.31;;;12.42;77.27
62978;BME280;49073;42.352;23.808;2022-11-09T08:26:40;95368.56;;;12.51;76.41
62978;BME280;49073;42.352;23.808;2022-11-09T08:29:41;95368.53;;;12.67;75.78
62978;BME280;49073;42.352;23.808;2022-11-09T08:32:42;95371.00;;;12.76;74.81
62978;BME280;49073;42.352;23.808;2022-11-09T08:35:43;95365.44;;;13.04;75.44
62978;BME280;49073;42.352;23.808;2022-11-09T08:38:44;95370.31;;;13.38;73.04
62978;BME280;49073;42.352;23.808;2022-11-09T08:41:45;95369.88;;;13.75;71.69
62978;BME280;49073;42.352;23.808;2022-11-09T08:44:46;95371.72;;;13.71;71.00
62978;BME280;49073;42.352;23.808;2022-11-09T08:47:47;95369.97;;;13.59;70.60
62978;BME280;49073;42.352;23.808;2022-11-09T08:50:55;95371.03;;;13.78;70.18
62978;BME280;49073;42.352;23.808;2022-11-09T08:53:56;95369.88;;;13.99;68.85
62978;BME280;49073;42.352;23.808;2022-11-09T08:56:56;95367.63;;;14.28;68.10
62978;BME280;49073;42.352;23.808;2022-11-09T08:59:57;95355.56;;;14.41;65.96
62978;BME280;49073;42.352;23.808;2022-11-09T09:02:57;95361.91;;;14.29;65.89
62978;BME280;49073;42.352;23.808;2022-11-09T09:06:02;95356.84;;;14.47;66.85
62978;BME280;49073;42.352;23.808;2022-11-09T09:09:03;95360.66;;;14.46;65.29
62978;BME280;49073;42.352;23.808;2022-11-09T09:12:05;95358.03;;;14.77;63.13
62978;BME280;49073;42.352;23.808;2022-11-09T09:15:07;95353.25;;;14.93;63.13
62978;BME280;49073;42.352;23.808;2022-11-09T09:18:07;95351.28;;;15.21;61.74
62978;BME280;49073;42.352;23.808;2022-11-09T09:21:09;95345.59;;;15.30;61.89
62978;BME280;49073;42.352;23.808;2022-11-09T09:24:10;95342.28;;;15.06;61.80
62978;BME280;49073;42.352;23.808;2022-11-09T09:27:10;95338.84;;;15.43;61.65
62978;BME280;49073;42.352;23.808;2022-11-09T09:30:11;95340.94;;;15.61;60.54
62978;BME280;49073;42.352;23.808;2022-11-09T09:33:12;95336.13;;;15.39;60.39
62978;BME280;49073;42.352;23.808;2022-11-09T09:36:22;95338.19;;;15.16;59.64
62978;BME280;49073;42.352;23.808;2022-11-09T09:39:23;95341.47;;;15.36;60.31
62978;BME280;49073;42.352;23.808;2022-11-09T09:42:31;95334.69;;;15.49;58.91
62978;BME280;49073;42.352;23.808;2022-11-09T09:45:34;95331.06;;;15.72;58.59
62978;BME280;49073;42.352;23.808;2022-11-09T09:48:45;95318.22;;;15.92;58.49
62978;BME280;49073;42.352;23.808;2022-11-09T09:51:54;95322.97;;;15.68;58.33
62978;BME280;49073;42.352;23.808;2022-11-09T09:55:00;95324.94;;;15.75;57.95
62978;BME280;49073;42.352;23.808;2022-11-09T10:01:19;95313.41;;;15.71;58.02
62978;BME280;49073;42.352;23.808;2022-11-09T10:04:24;95314.78;;;15.95;58.33
62978;BME280;49073;42.352;23.808;2022-11-09T10:07:47;95303.63;;;15.93;57.75
62978;BME280;49073;42.352;23.808;2022-11-09T10:30:28;95292.94;;;16.67;57.68
62978;BME280;49073;42.352;23.808;2022-11-09T10:33:28;95290.22;;;16.60;56.00
62978;BME280;49073;42.352;23.808;2022-11-09T10:36:41;95290.19;;;16.56;57.87
62978;BME280;49073;42.352;23.808;2022-11-09T10:40:22;95285.22;;;16.55;57.44
62978;BME280;49073;42.352;23.808;2022-11-09T10:43:23;95281.78;;;16.69;56.40
62978;BME280;49073;42.352;23.808;2022-11-09T10:46:24;95277.41;;;16.35;56.39
62978;BME280;49073;42.352;23.808;2022-11-09T10:49:25;95268.22;;;16.40;56.52
62978;BME280;49073;42.352;23.808;2022-11-09T10:52:31;95271.38;;;16.60;56.21
62978;BME280;49073;42.352;23.808;2022-11-09T10:55:58;95269.19;;;16.80;56.12
62978;BME280;49073;42.352;23.808;2022-11-09T10:59:35;95261.94;;;17.02;55.57
62978;BME280;49073;42.352;23.808;2022-11-09T11:02:40;95261.50;;;16.93;55.52
62978;BME280;49073;42.352;23.808;2022-11-09T11:05:41;95248.44;;;16.95;55.00
62978;BME280;49073;42.352;23.808;2022-11-09T11:08:54;95254.25;;;16.97;55.21
62978;BME280;49073;42.352;23.808;2022-11-09T11:12:17;95253.03;;;16.87;56.48
62978;BME280;49073;42.352;23.808;2022-11-09T11:15:23;95244.91;;;16.69;57.44
62978;BME280;49073;42.352;23.808;2022-11-09T11:18:25;95252.97;;;16.69;55.93
62978;BME280;49073;42.352;23.808;2022-11-09T11:21:27;95244.56;;;16.89;56.29
62978;BME280;49073;42.352;23.808;2022-11-09T11:24:40;95244.63;;;17.04;55.87
62978;BME280;49073;42.352;23.808;2022-11-09T11:28:00;95243.84;;;16.99;55.66
62978;BME280;49073;42.352;23.808;2022-11-09T11:31:08;95230.03;;;17.05;55.66
62978;BME280;49073;42.352;23.808;2022-11-09T11:34:13;95235.81;;;17.10;54.98
62978;BME280;49073;42.352;23.808;2022-11-09T11:40:54;95229.19;;;16.82;56.01
62978;BME280;49073;42.352;23.808;2022-11-09T11:47:13;95233.09;;;17.07;55.49
62978;BME280;49073;42.352;23.808;2022-11-09T12:00:17;95224.22;;;16.92;55.43
62978;BME280;49073;42.352;23.808;2022-11-09T12:10:25;95215.81;;;17.04;56.01
62978;BME280;49073;42.352;23.808;2022-11-09T12:30:20;95207.78;;;16.23;56.82
62978;BME280;49073;42.352;23.808;2022-11-09T12:33:36;95210.63;;;16.55;57.30
62978;BME280;49073;42.352;23.808;2022-11-09T12:36:46;95218.63;;;16.34;56.99
62978;BME280;49073;42.352;23.808;2022-11-09T12:39:52;95217.84;;;16.33;56.64
62978;BME280;49073;42.352;23.808;2022-11-09T12:43:10;95217.81;;;16.29;56.52
62978;BME280;49073;42.352;23.808;2022-11-09T12:46:16;95218.19;;;16.28;57.01
62978;BME280;49073;42.352;23.808;2022-11-09T12:49:40;95211.22;;;16.12;57.20
62978;BME280;49073;42.352;23.808;2022-11-09T12:52:42;95208.50;;;16.12;57.47
62978;BME280;49073;42.352;23.808;2022-11-09T13:02:32;95201.44;;;15.90;58.30
62978;BME280;49073;42.352;23.808;2022-11-09T13:05:36;95205.56;;;15.73;58.12
62978;BME280;49073;42.352;23.808;2022-11-09T13:08:37;95204.69;;;15.61;58.87
62978;BME280;49073;42.352;23.808;2022-11-09T13:11:47;95207.72;;;15.52;58.84
62978;BME280;49073;42.352;23.808;2022-11-09T13:14:48;95205.38;;;15.51;59.16
62978;BME280;49073;42.352;23.808;2022-11-09T13:27:37;95212.81;;;15.20;60.02
62978;BME280;49073;42.352;23.808;2022-11-09T13:30:41;95208.59;;;15.22;59.90
62978;BME280;49073;42.352;23.808;2022-11-09T13:33:42;95210.41;;;15.11;60.40
62978;BME280;49073;42.352;23.808;2022-11-09T13:36:42;95217.25;;;15.05;60.78
62978;BME280;49073;42.352;23.808;2022-11-09T13:39:44;95216.13;;;15.06;60.92
62978;BME280;49073;42.352;23.808;2022-11-09T13:42:59;95219.13;;;15.01;61.40
62978;BME280;49073;42.352;23.808;2022-11-09T13:49:46;95228.19;;;14.85;61.31
62978;BME280;49073;42.352;23.808;2022-11-09T13:52:49;95229.19;;;14.73;62.01
62978;BME280;49073;42.352;23.808;2022-11-09T13:55:49;95224.06;;;14.64;62.38
62978;BME280;49073;42.352;23.808;2022-11-09T13:58:50;95223.25;;;14.60;62.72
62978;BME280;49073;42.352;23.808;2022-11-09T14:01:54;95221.28;;;14.53;62.45
62978;BME280;49073;42.352;23.808;2022-11-09T14:04:55;95224.22;;;14.45;62.98
62978;BME280;49073;42.352;23.808;2022-11-09T14:07:58;95227.88;;;14.29;63.34
62978;BME280;49073;42.352;23.808;2022-11-09T14:24:30;95224.53;;;13.82;65.42
62978;BME280;49073;42.352;23.808;2022-11-09T14:27:32;95230.06;;;13.66;66.05
62978;BME280;49073;42.352;23.808;2022-11-09T14:30:33;95234.53;;;13.58;66.35
62978;BME280;49073;42.352;23.808;2022-11-09T14:33:43;95231.78;;;13.55;66.73
62978;BME280;49073;42.352;23.808;2022-11-09T14:36:57;95232.91;;;13.53;66.61
62978;BME280;49073;42.352;23.808;2022-11-09T14:39:57;95225.72;;;13.34;67.48
62978;BME280;49073;42.352;23.808;2022-11-09T14:46:26;95239.00;;;13.31;67.44
62978;BME280;49073;42.352;23.808;2022-11-09T14:49:28;95240.94;;;13.30;67.93
62978;BME280;49073;42.352;23.808;2022-11-09T14:52:29;95240.00;;;13.42;67.67
62978;BME280;49073;42.352;23.808;2022-11-09T14:55:36;95245.34;;;13.42;67.70
62978;BME280;49073;42.352;23.808;2022-11-09T14:58:40;95243.56;;;13.50;67.16
62978;BME280;49073;42.352;23.808;2022-11-09T15:01:57;95243.91;;;13.48;66.92
62978;BME280;49073;42.352;23.808;2022-11-09T15:05:03;95246.19;;;13.46;66.11
62978;BME280;49073;42.352;23.808;2022-11-09T15:08:13;95244.38;;;13.31;65.97
62978;BME280;49073;42.352;23.808;2022-11-09T15:11:14;95245.56;;;13.10;65.75
62978;BME280;49073;42.352;23.808;2022-11-09T15:20:31;95251.75;;;12.35;65.51
62978;BME280;49073;42.352;23.808;2022-11-09T15:23:42;95252.38;;;12.29;66.06
62978;BME280;49073;42.352;23.808;2022-11-09T15:26:46;95260.63;;;12.04;65.89
62978;BME280;49073;42.352;23.808;2022-11-09T15:29:47;95262.94;;;11.73;67.13
62978;BME280;49073;42.352;23.808;2022-11-09T15:32:48;95259.94;;;11.59;67.11
62978;BME280;49073;42.352;23.808;2022-11-09T15:35:55;95256.78;;;11.37;68.16
62978;BME280;49073;42.352;23.808;2022-11-09T15:38:57;95265.59;;;11.09;68.58
62978;BME280;49073;42.352;23.808;2022-11-09T15:41:58;95267.31;;;11.01;69.77
62978;BME280;49073;42.352;23.808;2022-11-09T15:44:59;95273.31;;;10.70;69.76
62978;BME280;49073;42.352;23.808;2022-11-09T15:48:00;95274.38;;;10.81;70.04
62978;BME280;49073;42.352;23.808;2022-11-09T15:51:01;95272.53;;;10.69;70.29
62978;BME280;49073;42.352;23.808;2022-11-09T15:54:01;95272.00;;;10.64;70.55
62978;BME280;49073;42.352;23.808;2022-11-09T15:57:04;95270.91;;;10.52;71.33
62978;BME280;49073;42.352;23.808;2022-11-09T16:00:06;95275.72;;;10.46;71.34
62978;BME280;49073;42.352;23.808;2022-11-09T16:03:07;95270.03;;;10.36;71.40
62978;BME280;49073;42.352;23.808;2022-11-09T16:06:14;95272.28;;;10.21;72.84
62978;BME280;49073;42.352;23.808;2022-11-09T16:09:15;95273.63;;;10.15;72.05
62978;BME280;49073;42.352;23.808;2022-11-09T16:12:15;95278.63;;;10.04;71.93
62978;BME280;49073;42.352;23.808;2022-11-09T16:15:16;95286.63;;;9.92;71.75
62978;BME280;49073;42.352;23.808;2022-11-09T16:18:16;95280.31;;;9.84;72.34
62978;BME280;49073;42.352;23.808;2022-11-09T16:21:17;95288.97;;;9.68;74.34
62978;BME280;49073;42.352;23.808;2022-11-09T16:24:18;95300.50;;;9.72;72.70
62978;BME280;49073;42.352;23.808;2022-11-09T16:27:20;95300.94;;;9.62;72.82
62978;BME280;49073;42.352;23.808;2022-11-09T16:30:21;95292.72;;;9.55;73.24
62978;BME280;49073;42.352;23.808;2022-11-09T16:33:21;95301.25;;;9.60;74.37
62978;BME280;49073;42.352;23.808;2022-11-09T16:36:24;95301.97;;;9.36;73.43
62978;BME280;49073;42.352;23.808;2022-11-09T16:39:25;95301.31;;;9.39;74.40
62978;BME280;49073;42.352;23.808;2022-11-09T16:42:26;95308.06;;;9.24;76.17
62978;BME280;49073;42.352;23.808;2022-11-09T16:45:26;95305.72;;;9.23;74.15
62978;BME280;49073;42.352;23.808;2022-11-09T16:48:27;95314.94;;;9.25;74.62
62978;BME280;49073;42.352;23.808;2022-11-09T16:51:31;95312.09;;;9.09;74.27
62978;BME280;49073;42.352;23.808;2022-11-09T16:54:33;95325.59;;;9.04;74.81
62978;BME280;49073;42.352;23.808;2022-11-09T16:57:34;95322.50;;;9.02;75.28
62978;BME280;49073;42.352;23.808;2022-11-09T17:00:34;95324.00;;;8.91;77.24
62978;BME280;49073;42.352;23.808;2022-11-09T17:03:35;95324.78;;;8.91;75.61
62978;BME280;49073;42.352;23.808;2022-11-09T17:06:36;95325.22;;;8.93;76.33
62978;BME280;49073;42.352;23.808;2022-11-09T17:09:36;95321.34;;;8.91;75.68
62978;BME280;49073;42.352;23.808;2022-11-09T17:12:37;95320.31;;;8.83;75.17
62978;BME280;49073;42.352;23.808;2022-11-09T17:15:42;95323.69;;;8.71;75.49
62978;BME280;49073;42.352;23.808;2022-11-09T17:18:43;95332.94;;;8.65;76.41
62978;BME280;49073;42.352;23.808;2022-11-09T17:21:43;95328.81;;;8.55;76.04
62978;BME280;49073;42.352;23.808;2022-11-09T17:24:44;95330.38;;;8.56;76.07
62978;BME280;49073;42.352;23.808;2022-11-09T17:27:45;95329.59;;;8.55;76.43
62978;BME280;49073;42.352;23.808;2022-11-09T17:30:46;95322.91;;;8.49;77.48
62978;BME280;49073;42.352;23.808;2022-11-09T17:33:46;95329.88;;;8.33;77.18
62978;BME280;49073;42.352;23.808;2022-11-09T17:36:47;95323.63;;;8.28;75.97
62978;BME280;49073;42.352;23.808;2022-11-09T17:39:48;95334.16;;;8.16;76.53
62978;BME280;49073;42.352;23.808;2022-11-09T17:42:48;95337.25;;;8.18;78.15
62978;BME280;49073;42.352;23.808;2022-11-09T17:45:49;95330.84;;;8.19;77.76
62978;BME280;49073;42.352;23.808;2022-11-09T17:48:50;95328.91;;;8.07;77.58